Time;durP1;ratioP1;P1;durP2;ratioP2;P2;SDS_P1;SDS_P2;PMS_P1;PMS_P2;Temp;Humidity;BMP_temperature;BMP_pressure;BME280_temperature;BME280_humidity;BME280_pressure;Samples;Min_cycle;Max_cycle;Signal;HPM_P1;HPM_P2
2021/10/11 00:00:41;;;;;;;0.53;0.53;;;;;;;;;;4997963;28;20109;-82
2021/10/11 00:03:07;;;;;;;0.77;0.77;;;;;;;;;;4994990;28;20483;-82
2021/10/11 00:05:33;;;;;;;0.30;0.30;;;;;;;;;;5006352;28;20205;-82
2021/10/11 00:07:59;;;;;;;0.30;0.30;;;;;;;;;;5001453;28;20567;-82
2021/10/11 00:10:25;;;;;;;0.60;0.60;;;;;;;;;;5005486;28;20438;-82
2021/10/11 00:12:53;;;;;;;0.20;0.20;;;;;;;;;;5005915;28;20551;-82
2021/10/11 00:15:19;;;;;;;0.35;0.35;;;;;;;;;;4998150;28;20034;-83
2021/10/11 00:17:46;;;;;;;0.30;0.30;;;;;;;;;;4996141;28;20069;-82
2021/10/11 00:20:13;;;;;;;1.15;1.13;;;;;;;;;;5009383;28;20419;-82
2021/10/11 00:22:39;;;;;;;1.02;1.00;;;;;;;;;;5005570;28;20045;-82
2021/10/11 00:25:05;;;;;;;1.27;1.17;;;;;;;;;;5003733;28;20060;-82
2021/10/11 00:27:32;;;;;;;0.45;0.45;;;;;;;;;;5006168;28;20117;-83
2021/10/11 00:29:58;;;;;;;0.38;0.38;;;;;;;;;;5001010;28;20051;-83
2021/10/11 00:32:24;;;;;;;0.73;0.73;;;;;;;;;;5006504;28;20049;-82
2021/10/11 00:34:50;;;;;;;0.73;0.73;;;;;;;;;;5008777;28;20079;-82
2021/10/11 00:37:16;;;;;;;0.52;0.52;;;;;;;;;;4998898;28;20305;-82
2021/10/11 00:39:43;;;;;;;0.22;0.22;;;;;;;;;;4999418;28;20022;-83
2021/10/11 00:42:09;;;;;;;1.90;0.95;;;;;;;;;;5005347;28;20037;-82
2021/10/11 00:44:35;;;;;;;0.65;0.65;;;;;;;;;;5007995;28;20034;-82
2021/10/11 00:47:01;;;;;;;0.90;0.77;;;;;;;;;;5010112;28;20061;-82
2021/10/11 00:49:27;;;;;;;2.22;0.65;;;;;;;;;;5003838;28;20058;-81
2021/10/11 00:51:53;;;;;;;1.03;1.03;;;;;;;;;;5001193;28;20113;-83
2021/10/11 00:54:19;;;;;;;0.67;0.67;;;;;;;;;;5005262;28;20030;-83
2021/10/11 00:56:45;;;;;;;0.60;0.60;;;;;;;;;;5007896;28;20046;-83
2021/10/11 00:59:11;;;;;;;3.70;0.65;;;;;;;;;;5001651;28;20519;-82
2021/10/11 01:01:37;;;;;;;0.50;0.50;;;;;;;;;;5002220;28;20411;-82
2021/10/11 01:04:07;;;;;;;2.22;1.33;;;;;;;;;;5002876;28;20339;-83
2021/10/11 01:06:36;;;;;;;0.45;0.45;;;;;;;;;;5007080;28;20415;-81
2021/10/11 01:09:03;;;;;;;0.60;0.60;;;;;;;;;;4996871;28;20034;-81
2021/10/11 01:11:29;;;;;;;0.38;0.38;;;;;;;;;;5000747;28;20135;-82
2021/10/11 01:13:55;;;;;;;0.47;0.47;;;;;;;;;;4993115;28;20495;-83
2021/10/11 01:16:21;;;;;;;1.30;1.20;;;;;;;;;;5006023;28;20128;-82
2021/10/11 01:18:47;;;;;;;1.02;1.00;;;;;;;;;;5006556;28;20041;-82
2021/10/11 01:21:13;;;;;;;0.43;0.43;;;;;;;;;;5006873;28;20030;-83
2021/10/11 01:23:39;;;;;;;3.17;1.05;;;;;;;;;;5007412;28;20025;-82
2021/10/11 01:26:05;;;;;;;5.25;0.75;;;;;;;;;;5004937;28;20497;-83
2021/10/11 01:28:31;;;;;;;1.70;0.95;;;;;;;;;;5007536;28;20164;-83
2021/10/11 01:30:57;;;;;;;2.58;2.38;;;;;;;;;;5004422;28;20026;-83
2021/10/11 01:33:23;;;;;;;0.85;0.75;;;;;;;;;;5003891;28;20022;-83
2021/10/11 01:35:50;;;;;;;0.10;0.10;;;;;;;;;;5004032;28;20038;-82
2021/10/11 01:38:16;;;;;;;0.70;0.70;;;;;;;;;;5008333;28;20045;-83
2021/10/11 01:40:42;;;;;;;1.47;1.37;;;;;;;;;;5007459;28;20030;-83
2021/10/11 01:43:09;;;;;;;1.13;1.03;;;;;;;;;;4993757;28;20032;-82
2021/10/11 01:45:36;;;;;;;0.80;0.77;;;;;;;;;;4997874;28;20276;-82
2021/10/11 01:48:05;;;;;;;0.35;0.35;;;;;;;;;;4997684;28;20491;-82
2021/10/11 01:50:33;;;;;;;0.38;0.38;;;;;;;;;;5006335;28;20042;-83
2021/10/11 01:52:59;;;;;;;0.20;0.20;;;;;;;;;;4994734;28;20113;-81
2021/10/11 01:55:26;;;;;;;0.50;0.50;;;;;;;;;;5005187;28;20069;-83
2021/10/11 01:57:52;;;;;;;0.38;0.38;;;;;;;;;;5003031;28;20045;-82
2021/10/11 02:00:18;;;;;;;0.55;0.55;;;;;;;;;;5001966;28;20022;-83
2021/10/11 02:02:44;;;;;;;1.43;1.07;;;;;;;;;;5006821;28;20034;-82
2021/10/11 02:05:10;;;;;;;0.47;0.47;;;;;;;;;;5008201;28;20052;-82
2021/10/11 02:07:36;;;;;;;0.47;0.47;;;;;;;;;;5006882;28;20038;-82
2021/10/11 02:10:04;;;;;;;0.17;0.17;;;;;;;;;;5006977;28;20113;-82
2021/10/11 02:12:30;;;;;;;0.50;0.50;;;;;;;;;;5005443;28;20061;-82
2021/10/11 02:14:56;;;;;;;0.10;0.10;;;;;;;;;;4999500;28;20076;-83
2021/10/11 02:17:22;;;;;;;0.30;0.30;;;;;;;;;;4996076;28;20077;-82
2021/10/11 02:19:48;;;;;;;0.25;0.25;;;;;;;;;;5003256;28;20045;-82
2021/10/11 02:22:14;;;;;;;8.27;1.15;;;;;;;;;;5000192;28;20034;-83
2021/10/11 02:24:40;;;;;;;0.20;0.20;;;;;;;;;;4999247;28;20558;-82
2021/10/11 02:27:06;;;;;;;0.35;0.35;;;;;;;;;;4999653;28;20116;-83
2021/10/11 02:29:33;;;;;;;0.45;0.45;;;;;;;;;;5001881;28;20034;-82
2021/10/11 02:31:59;;;;;;;0.38;0.38;;;;;;;;;;5004066;28;20037;-83
2021/10/11 02:34:25;;;;;;;0.50;0.50;;;;;;;;;;4995137;28;20038;-83
2021/10/11 02:36:51;;;;;;;0.20;0.20;;;;;;;;;;4999030;28;20042;-82
2021/10/11 02:39:17;;;;;;;0.40;0.40;;;;;;;;;;5004392;28;20065;-83
2021/10/11 02:41:43;;;;;;;0.77;0.77;;;;;;;;;;5005524;28;20058;-83
2021/10/11 02:44:09;;;;;;;0.20;0.20;;;;;;;;;;5007558;28;20100;-83
2021/10/11 02:46:35;;;;;;;1.92;1.05;;;;;;;;;;5006420;28;20069;-83
2021/10/11 02:49:01;;;;;;;0.75;0.75;;;;;;;;;;5004476;28;20037;-83
2021/10/11 02:51:27;;;;;;;0.95;0.90;;;;;;;;;;4997085;28;20029;-83
2021/10/11 02:53:53;;;;;;;1.23;1.13;;;;;;;;;;4999725;28;20092;-82
2021/10/11 02:56:20;;;;;;;1.00;0.68;;;;;;;;;;4999530;28;20419;-84
2021/10/11 02:58:46;;;;;;;0.90;0.90;;;;;;;;;;5005967;28;20025;-83
2021/10/11 03:01:14;;;;;;;0.47;0.47;;;;;;;;;;5001648;28;20042;-84
2021/10/11 03:03:40;;;;;;;1.05;1.05;;;;;;;;;;4999044;28;20361;-82
2021/10/11 03:06:06;;;;;;;0.52;0.52;;;;;;;;;;5006722;28;20068;-83
2021/10/11 03:08:33;;;;;;;0.25;0.25;;;;;;;;;;5005928;28;20030;-83
2021/10/11 03:10:59;;;;;;;0.45;0.45;;;;;;;;;;5004386;28;20034;-85
2021/10/11 03:13:25;;;;;;;0.40;0.40;;;;;;;;;;4999787;28;20030;-82
2021/10/11 03:15:52;;;;;;;0.45;0.45;;;;;;;;;;5001923;28;20575;-82
2021/10/11 03:18:18;;;;;;;0.20;0.20;;;;;;;;;;5009198;28;20494;-82
2021/10/11 03:20:43;;;;;;;0.52;0.52;;;;;;;;;;5004328;28;20042;-82
2021/10/11 03:23:10;;;;;;;3.50;1.17;;;;;;;;;;5009101;28;20029;-83
2021/10/11 03:25:36;;;;;;;0.82;0.80;;;;;;;;;;5009054;28;20088;-82
2021/10/11 03:28:02;;;;;;;1.98;1.85;;;;;;;;;;5004453;28;20038;-84
2021/10/11 03:30:29;;;;;;;1.17;1.08;;;;;;;;;;5008536;28;20057;-82
2021/10/11 03:32:55;;;;;;;0.57;0.57;;;;;;;;;;5009466;28;20030;-81
2021/10/11 03:35:21;;;;;;;1.50;0.80;;;;;;;;;;5008824;28;20030;-82
2021/10/11 03:37:47;;;;;;;0.75;0.75;;;;;;;;;;5008089;28;20466;-81
2021/10/11 03:40:14;;;;;;;0.10;0.10;;;;;;;;;;5004428;28;20033;-82
2021/10/11 03:42:40;;;;;;;1.30;1.20;;;;;;;;;;5001985;28;20415;-83
2021/10/11 03:45:06;;;;;;;2.55;1.27;;;;;;;;;;5002041;28;20761;-82
2021/10/11 03:47:33;;;;;;;0.95;0.95;;;;;;;;;;5009260;28;20041;-82
2021/10/11 03:49:59;;;;;;;0.57;0.57;;;;;;;;;;5002317;28;20041;-82
2021/10/11 03:52:25;;;;;;;0.50;0.50;;;;;;;;;;5005397;28;20296;-82
2021/10/11 03:54:51;;;;;;;1.27;0.83;;;;;;;;;;5008172;28;20068;-83
2021/10/11 03:57:17;;;;;;;0.20;0.20;;;;;;;;;;5006070;28;20049;-81
2021/10/11 03:59:43;;;;;;;1.13;1.13;;;;;;;;;;5008044;28;20034;-81
2021/10/11 04:02:09;;;;;;;1.17;1.08;;;;;;;;;;4994223;28;20026;-82
2021/10/11 04:04:36;;;;;;;1.00;0.93;;;;;;;;;;4997826;28;20657;-81
2021/10/11 04:07:07;;;;;;;0.68;0.68;;;;;;;;;;5003367;28;20037;-82
2021/10/11 04:09:33;;;;;;;0.90;0.90;;;;;;;;;;5007142;28;20057;-82
2021/10/11 04:12:06;;;;;;;0.22;0.20;;;;;;;;;;5008163;28;20077;-82
2021/10/11 04:14:33;;;;;;;0.60;0.60;;;;;;;;;;5006831;28;20125;-82
2021/10/11 04:16:59;;;;;;;0.22;0.22;;;;;;;;;;5009848;28;20034;-81
2021/10/11 04:19:25;;;;;;;0.52;0.52;;;;;;;;;;5006948;28;20053;-82
2021/10/11 04:21:51;;;;;;;0.82;0.82;;;;;;;;;;5008158;28;20455;-82
2021/10/11 04:24:17;;;;;;;0.55;0.55;;;;;;;;;;5008173;28;20033;-83
2021/10/11 04:26:43;;;;;;;0.50;0.50;;;;;;;;;;5004508;28;20030;-82
2021/10/11 04:29:09;;;;;;;0.13;0.13;;;;;;;;;;4992147;28;20034;-82
2021/10/11 04:31:35;;;;;;;1.33;0.98;;;;;;;;;;5008154;28;20296;-82
2021/10/11 04:34:01;;;;;;;0.30;0.30;;;;;;;;;;5006954;28;20030;-83
2021/10/11 04:36:27;;;;;;;0.70;0.70;;;;;;;;;;5004330;28;20048;-82
2021/10/11 04:38:54;;;;;;;7.22;3.28;;;;;;;;;;4995723;28;20030;-82
2021/10/11 04:41:20;;;;;;;1.13;1.05;;;;;;;;;;5005945;28;20411;-81
2021/10/11 04:43:46;;;;;;;0.85;0.85;;;;;;;;;;5002162;28;20038;-82
2021/10/11 04:46:12;;;;;;;0.20;0.20;;;;;;;;;;5003715;28;20077;-82
2021/10/11 04:48:38;;;;;;;0.30;0.30;;;;;;;;;;5008077;28;20033;-81
2021/10/11 04:51:04;;;;;;;1.25;1.17;;;;;;;;;;5007505;28;20053;-81
2021/10/11 04:53:30;;;;;;;0.70;0.70;;;;;;;;;;4995042;28;20030;-81
2021/10/11 04:55:56;;;;;;;0.52;0.52;;;;;;;;;;5009946;28;20033;-82
2021/10/11 04:58:22;;;;;;;0.37;0.37;;;;;;;;;;5007040;28;20495;-81
2021/10/11 05:00:48;;;;;;;0.73;0.73;;;;;;;;;;5007575;28;20119;-82
2021/10/11 05:03:14;;;;;;;0.25;0.25;;;;;;;;;;5003645;28;20072;-80
2021/10/11 05:05:40;;;;;;;1.15;1.10;;;;;;;;;;5003817;28;20043;-82
2021/10/11 05:08:07;;;;;;;0.25;0.25;;;;;;;;;;4992573;28;20036;-81
2021/10/11 05:10:33;;;;;;;;;;;;;;;;;;4995826;28;20061;-81
2021/10/11 05:12:59;;;;;;;1.33;1.23;;;;;;;;;;4997621;28;19972;-81
2021/10/11 05:15:25;;;;;;;1.30;1.20;;;;;;;;;;5001688;28;20033;-81
2021/10/11 05:17:51;;;;;;;0.25;0.25;;;;;;;;;;4992396;28;20064;-80
2021/10/11 05:20:17;;;;;;;1.83;1.63;;;;;;;;;;4991630;28;20499;-81
2021/10/11 05:22:43;;;;;;;1.77;0.98;;;;;;;;;;4995196;28;20045;-81
2021/10/11 05:25:10;;;;;;;1.90;1.20;;;;;;;;;;4993856;28;20026;-81
2021/10/11 05:27:36;;;;;;;0.60;0.60;;;;;;;;;;4998795;28;20521;-82
2021/10/11 05:30:03;;;;;;;0.93;0.93;;;;;;;;;;4995992;28;20908;-82
2021/10/11 05:32:29;;;;;;;1.38;0.63;;;;;;;;;;5000365;28;20138;-81
2021/10/11 05:34:58;;;;;;;0.73;0.73;;;;;;;;;;4994489;28;20033;-82
2021/10/11 05:37:24;;;;;;;1.17;0.68;;;;;;;;;;4990730;28;20491;-82
2021/10/11 05:39:50;;;;;;;0.77;0.73;;;;;;;;;;4992618;28;20030;-82
2021/10/11 05:42:16;;;;;;;0.28;0.28;;;;;;;;;;4990876;28;20033;-82
2021/10/11 05:44:42;;;;;;;1.63;1.52;;;;;;;;;;4987758;28;20116;-83
2021/10/11 05:47:09;;;;;;;0.10;0.10;;;;;;;;;;5002381;28;20034;-80
2021/10/11 05:49:35;;;;;;;0.30;0.30;;;;;;;;;;5003087;28;20120;-83
2021/10/11 05:52:01;;;;;;;3.53;0.63;;;;;;;;;;5000022;28;20125;-82
2021/10/11 05:54:28;;;;;;;1.38;0.82;;;;;;;;;;5002725;28;20048;-83
2021/10/11 05:56:55;;;;;;;0.30;0.30;;;;;;;;;;5002569;28;20041;-82
2021/10/11 05:59:21;;;;;;;1.02;0.82;;;;;;;;;;5003591;28;20060;-82
2021/10/11 06:01:47;;;;;;;1.05;1.05;;;;;;;;;;5004292;28;20132;-81
2021/10/11 06:04:13;;;;;;;6.50;1.38;;;;;;;;;;5003857;28;20038;-81
2021/10/11 06:06:39;;;;;;;26.40;2.38;;;;;;;;;;5002708;28;20026;-81
2021/10/11 06:09:05;;;;;;;16.85;4.07;;;;;;;;;;5002719;28;20057;-83
2021/10/11 06:11:31;;;;;;;0.30;0.30;;;;;;;;;;5002462;28;20660;-83
2021/10/11 06:13:57;;;;;;;0.10;0.10;;;;;;;;;;5004730;28;20022;-83
2021/10/11 06:16:23;;;;;;;0.93;0.90;;;;;;;;;;5003159;28;20049;-85
2021/10/11 06:18:49;;;;;;;0.00;0.00;;;;;;;;;;5001801;28;20071;-83
2021/10/11 06:21:15;;;;;;;0.43;0.43;;;;;;;;;;5002640;28;20034;-83
2021/10/11 06:23:41;;;;;;;0.08;0.08;;;;;;;;;;5001652;28;20068;-82
2021/10/11 06:26:07;;;;;;;1.98;0.65;;;;;;;;;;5001306;28;20037;-83
2021/10/11 06:28:34;;;;;;;0.10;0.10;;;;;;;;;;5002181;28;20080;-83
2021/10/11 06:31:00;;;;;;;0.55;0.40;;;;;;;;;;5002144;28;20053;-84
2021/10/11 06:33:26;;;;;;;0.43;0.43;;;;;;;;;;5002187;28;20029;-83
2021/10/11 06:35:52;;;;;;;0.10;0.10;;;;;;;;;;4997241;28;20042;-83
2021/10/11 06:38:18;;;;;;;1.17;0.95;;;;;;;;;;5003082;28;20029;-84
2021/10/11 06:40:48;;;;;;;0.60;0.60;;;;;;;;;;5003297;28;20422;-85
2021/10/11 06:43:14;;;;;;;0.28;0.28;;;;;;;;;;5001314;28;20030;-83
2021/10/11 06:45:40;;;;;;;0.13;0.13;;;;;;;;;;4994756;28;20109;-83
2021/10/11 06:48:06;;;;;;;0.30;0.30;;;;;;;;;;5001967;28;20022;-82
2021/10/11 06:50:32;;;;;;;9.35;2.70;;;;;;;;;;5001583;28;20033;-83
2021/10/11 06:52:58;;;;;;;0.60;0.60;;;;;;;;;;5008434;28;20628;-83
2021/10/11 06:55:24;;;;;;;7.10;2.05;;;;;;;;;;5005828;28;20040;-83
2021/10/11 06:57:50;;;;;;;1.03;0.87;;;;;;;;;;5005818;28;20060;-84
2021/10/11 07:00:16;;;;;;;0.13;0.13;;;;;;;;;;5006137;28;20030;-84
2021/10/11 07:02:42;;;;;;;0.50;0.50;;;;;;;;;;5005958;28;20117;-84
2021/10/11 07:05:10;;;;;;;0.45;0.45;;;;;;;;;;5008172;28;20029;-84
2021/10/11 07:07:37;;;;;;;0.03;0.03;;;;;;;;;;5005389;28;20205;-84
2021/10/11 07:10:03;;;;;;;1.02;0.98;;;;;;;;;;5004339;28;20068;-86
2021/10/11 07:12:30;;;;;;;1.77;1.02;;;;;;;;;;5006068;28;20127;-86
2021/10/11 07:14:56;;;;;;;0.20;0.20;;;;;;;;;;5005651;28;20030;-83
2021/10/11 07:17:22;;;;;;;0.37;0.37;;;;;;;;;;5005991;28;20040;-84
2021/10/11 07:19:48;;;;;;;0.30;0.30;;;;;;;;;;5007475;28;20081;-84
2021/10/11 07:22:14;;;;;;;0.30;0.30;;;;;;;;;;5005541;28;20569;-83
2021/10/11 07:24:41;;;;;;;0.82;0.70;;;;;;;;;;5004963;28;20026;-83
2021/10/11 07:27:08;;;;;;;0.52;0.52;;;;;;;;;;5004762;28;20793;-84
2021/10/11 07:29:34;;;;;;;0.95;0.65;;;;;;;;;;5005522;28;20041;-83
2021/10/11 07:32:00;;;;;;;0.43;0.43;;;;;;;;;;5007436;28;20034;-82
2021/10/11 07:34:26;;;;;;;0.47;0.47;;;;;;;;;;5005050;28;20088;-83
2021/10/11 07:36:52;;;;;;;1.40;1.30;;;;;;;;;;5004952;28;20034;-83
2021/10/11 07:39:19;;;;;;;1.30;0.70;;;;;;;;;;5005906;28;20116;-83
2021/10/11 07:41:45;;;;;;;0.47;0.35;;;;;;;;;;5005283;28;20293;-83
2021/10/11 07:44:11;;;;;;;0.83;0.83;;;;;;;;;;5007487;28;20026;-84
2021/10/11 07:46:38;;;;;;;1.17;0.97;;;;;;;;;;5005616;28;20284;-82
2021/10/11 07:49:04;;;;;;;0.22;0.22;;;;;;;;;;5004978;28;20276;-83
2021/10/11 07:51:30;;;;;;;0.60;0.60;;;;;;;;;;5002901;28;20030;-83
2021/10/11 07:53:56;;;;;;;0.08;0.08;;;;;;;;;;5004784;28;20061;-83
2021/10/11 07:56:22;;;;;;;0.10;0.10;;;;;;;;;;5005757;28;20033;-84
2021/10/11 07:58:48;;;;;;;0.63;0.63;;;;;;;;;;5006593;28;20085;-83
2021/10/11 08:01:14;;;;;;;2.08;0.40;;;;;;;;;;5004382;28;20277;-84
2021/10/11 08:03:40;;;;;;;0.63;0.63;;;;;;;;;;5004658;28;20045;-83
2021/10/11 08:06:07;;;;;;;0.20;0.20;;;;;;;;;;5004490;28;20273;-83
2021/10/11 08:08:34;;;;;;;0.35;0.35;;;;;;;;;;5003572;28;20487;-83
2021/10/11 08:11:01;;;;;;;0.17;0.17;;;;;;;;;;5006858;28;20034;-82
2021/10/11 08:13:27;;;;;;;0.30;0.30;;;;;;;;;;5004711;28;20117;-83
2021/10/11 08:15:53;;;;;;;0.28;0.28;;;;;;;;;;5004551;28;20042;-83
2021/10/11 08:18:19;;;;;;;0.70;0.63;;;;;;;;;;5004401;28;20049;-84
2021/10/11 08:20:46;;;;;;;0.40;0.20;;;;;;;;;;5003847;28;20042;-84
2021/10/11 08:23:13;;;;;;;0.75;0.43;;;;;;;;;;5006502;28;20276;-83
2021/10/11 08:25:39;;;;;;;1.55;0.57;;;;;;;;;;5004895;28;20049;-83
2021/10/11 08:28:05;;;;;;;0.20;0.20;;;;;;;;;;5004206;28;20868;-83
2021/10/11 08:30:31;;;;;;;0.20;0.20;;;;;;;;;;5004700;28;20239;-84
2021/10/11 08:32:58;;;;;;;0.22;0.22;;;;;;;;;;5004538;28;20033;-84
2021/10/11 08:35:24;;;;;;;1.45;0.73;;;;;;;;;;5005022;28;20386;-83
2021/10/11 08:37:53;;;;;;;0.28;0.28;;;;;;;;;;5006194;28;20646;-83
2021/10/11 08:40:20;;;;;;;0.60;0.60;;;;;;;;;;5004161;28;20430;-84
2021/10/11 08:42:47;;;;;;;;;;;;;;;;;;5004722;28;20038;-84
2021/10/11 08:45:13;;;;;;;0.20;0.20;;;;;;;;;;5004322;28;20008;-84
2021/10/11 08:47:39;;;;;;;0.53;0.53;;;;;;;;;;5004163;28;20065;-83
2021/10/11 08:50:06;;;;;;;0.45;0.45;;;;;;;;;;5004681;28;20072;-83
2021/10/11 08:52:32;;;;;;;0.52;0.30;;;;;;;;;;5003345;28;20076;-84
2021/10/11 08:54:59;;;;;;;0.83;0.83;;;;;;;;;;5002440;28;20030;-83
2021/10/11 08:57:25;;;;;;;23.55;2.10;;;;;;;;;;5003652;28;20518;-84
2021/10/11 08:59:51;;;;;;;0.40;0.40;;;;;;;;;;5003773;28;20052;-83
2021/10/11 09:02:20;;;;;;;0.20;0.20;;;;;;;;;;5005384;28;20277;-83
2021/10/11 09:04:47;;;;;;;0.10;0.10;;;;;;;;;;5004801;28;20022;-84
2021/10/11 09:07:13;;;;;;;2.75;0.60;;;;;;;;;;5003592;28;20040;-84
2021/10/11 09:09:46;;;;;;;0.30;0.30;;;;;;;;;;5005613;28;20116;-84
2021/10/11 09:12:20;;;;;;;0.60;0.60;;;;;;;;;;5003549;28;20036;-84
2021/10/11 09:14:47;;;;;;;0.45;0.40;;;;;;;;;;4988231;28;20114;-85
2021/10/11 09:17:26;;;;;;;0.70;0.47;;;;;;;;;;5005115;28;20033;-83
2021/10/11 09:19:58;;;;;;;0.13;0.10;;;;;;;;;;5002607;28;20143;-84
2021/10/11 09:22:37;;;;;;;0.20;0.20;;;;;;;;;;5003092;28;20033;-84
2021/10/11 09:25:03;;;;;;;0.60;0.57;;;;;;;;;;5002938;28;20044;-83
2021/10/11 09:27:29;;;;;;;0.52;0.52;;;;;;;;;;5003247;28;20022;-84
2021/10/11 09:29:55;;;;;;;0.50;0.50;;;;;;;;;;5001928;28;20034;-84
2021/10/11 09:32:30;;;;;;;2.55;0.73;;;;;;;;;;5003757;28;20100;-85
2021/10/11 09:35:07;;;;;;;0.85;0.85;;;;;;;;;;5003534;28;20100;-84
2021/10/11 09:37:36;;;;;;;0.25;0.25;;;;;;;;;;5002721;28;20038;-83
2021/10/11 09:40:02;;;;;;;0.30;0.30;;;;;;;;;;5002695;28;20041;-84
2021/10/11 09:42:29;;;;;;;0.30;0.30;;;;;;;;;;5002700;28;20034;-84
2021/10/11 09:44:57;;;;;;;0.60;0.57;;;;;;;;;;5003112;28;20072;-84
2021/10/11 09:50:04;;;;;;;0.30;0.30;;;;;;;;;;5003402;28;20053;-84
2021/10/11 09:52:31;;;;;;;7.47;0.73;;;;;;;;;;5001648;28;20038;-84
2021/10/11 09:54:57;;;;;;;0.30;0.30;;;;;;;;;;5002824;28;20518;-84
2021/10/11 09:57:23;;;;;;;0.28;0.28;;;;;;;;;;5002872;28;20038;-84
2021/10/11 09:59:50;;;;;;;0.52;0.52;;;;;;;;;;5002548;28;20025;-84
2021/10/11 10:02:17;;;;;;;0.95;0.65;;;;;;;;;;5003584;28;20135;-84
2021/10/11 10:04:45;;;;;;;0.55;0.55;;;;;;;;;;5003503;28;20018;-84
2021/10/11 10:07:12;;;;;;;0.32;0.32;;;;;;;;;;5002207;28;20030;-84
2021/10/11 10:09:44;;;;;;;0.30;0.25;;;;;;;;;;5002515;28;20045;-84
2021/10/11 10:12:12;;;;;;;0.20;0.20;;;;;;;;;;5002181;28;20022;-84
2021/10/11 10:14:38;;;;;;;0.40;0.40;;;;;;;;;;5002744;28;20038;-84
2021/10/11 10:17:04;;;;;;;1.73;1.00;;;;;;;;;;5004301;28;20083;-84
2021/10/11 10:19:34;;;;;;;0.38;0.38;;;;;;;;;;5002226;28;20056;-84
2021/10/11 10:22:01;;;;;;;0.20;0.20;;;;;;;;;;5002171;28;20045;-84
2021/10/11 10:24:30;;;;;;;0.47;0.38;;;;;;;;;;5002431;28;20014;-84
2021/10/11 10:27:09;;;;;;;0.20;0.20;;;;;;;;;;5002645;28;20042;-84
2021/10/11 10:29:48;;;;;;;0.38;0.35;;;;;;;;;;5002717;28;20066;-84
2021/10/11 10:32:17;;;;;;;0.45;0.45;;;;;;;;;;5000084;28;20029;-85
2021/10/11 10:34:45;;;;;;;0.70;0.70;;;;;;;;;;5000525;28;20030;-84
2021/10/11 10:37:13;;;;;;;0.25;0.25;;;;;;;;;;5002301;28;20100;-85
2021/10/11 10:39:52;;;;;;;0.57;0.57;;;;;;;;;;5003419;28;20073;-85
2021/10/11 10:42:29;;;;;;;0.68;0.55;;;;;;;;;;5002091;28;20029;-84
2021/10/11 10:44:56;;;;;;;1.02;0.95;;;;;;;;;;5002510;28;20030;-84
2021/10/11 10:47:36;;;;;;;0.20;0.20;;;;;;;;;;5002571;28;20029;-84
2021/10/11 10:50:04;;;;;;;0.45;0.45;;;;;;;;;;5002964;28;20042;-84
2021/10/11 10:52:30;;;;;;;0.20;0.20;;;;;;;;;;5000913;28;20414;-84
2021/10/11 10:54:58;;;;;;;0.47;0.47;;;;;;;;;;5002101;28;20052;-84
2021/10/11 10:57:26;;;;;;;1.08;0.85;;;;;;;;;;5001910;28;20041;-83
2021/10/11 10:59:58;;;;;;;0.10;0.10;;;;;;;;;;5001588;28;20030;-84
2021/10/11 11:02:24;;;;;;;1.23;0.57;;;;;;;;;;5002405;28;20061;-84
2021/10/11 11:04:55;;;;;;;0.30;0.30;;;;;;;;;;5003906;28;20727;-84
2021/10/11 11:07:25;;;;;;;0.20;0.20;;;;;;;;;;5001696;28;20038;-85
2021/10/11 11:09:51;;;;;;;0.85;0.75;;;;;;;;;;5001650;28;20076;-84
2021/10/11 11:12:27;;;;;;;0.20;0.20;;;;;;;;;;5002408;28;20816;-85
2021/10/11 11:14:53;;;;;;;0.20;0.20;;;;;;;;;;5001689;28;20507;-84
2021/10/11 11:17:27;;;;;;;0.27;0.23;;;;;;;;;;5002787;28;20117;-84
2021/10/11 11:19:53;;;;;;;0.55;0.55;;;;;;;;;;5001502;28;20319;-84
2021/10/11 11:22:28;;;;;;;0.43;0.43;;;;;;;;;;5001590;28;20037;-84
2021/10/11 11:24:56;;;;;;;0.63;0.60;;;;;;;;;;5001612;28;20026;-83
2021/10/11 11:27:30;;;;;;;0.40;0.30;;;;;;;;;;5002620;28;20036;-84
2021/10/11 11:29:57;;;;;;;0.15;0.15;;;;;;;;;;5000684;28;20090;-84
2021/10/11 11:32:23;;;;;;;1.38;0.70;;;;;;;;;;5000688;28;20403;-85
2021/10/11 11:34:49;;;;;;;0.20;0.20;;;;;;;;;;5003222;28;20234;-85
2021/10/11 11:37:15;;;;;;;0.68;0.68;;;;;;;;;;5003967;28;20092;-85
2021/10/11 11:39:41;;;;;;;0.30;0.30;;;;;;;;;;5005250;28;20514;-85
2021/10/11 11:42:08;;;;;;;0.10;0.10;;;;;;;;;;5004880;28;20030;-85
2021/10/11 11:44:34;;;;;;;0.22;0.22;;;;;;;;;;5004965;28;20316;-84
2021/10/11 11:47:03;;;;;;;0.28;0.28;;;;;;;;;;5005550;28;20116;-84
2021/10/11 11:49:29;;;;;;;0.57;0.57;;;;;;;;;;5005201;28;20044;-84
2021/10/11 11:52:15;;;;;;;0.20;0.20;;;;;;;;;;5002387;28;20400;-84
2021/10/11 11:54:52;;;;;;;0.73;0.52;;;;;;;;;;5001808;28;20087;-85
2021/10/11 11:57:19;;;;;;;0.55;0.55;;;;;;;;;;5004510;28;20054;-85
2021/10/11 11:59:45;;;;;;;;;;;;;;;;;;5004938;28;20033;-85
2021/10/11 12:02:14;;;;;;;0.38;0.38;;;;;;;;;;5006832;28;19909;-84
2021/10/11 12:04:40;;;;;;;0.55;0.55;;;;;;;;;;5005753;28;20022;-84
2021/10/11 12:07:06;;;;;;;0.08;0.08;;;;;;;;;;5004595;28;20171;-83
2021/10/11 12:09:32;;;;;;;2.58;1.23;;;;;;;;;;5004428;28;20100;-84
2021/10/11 12:12:03;;;;;;;0.50;0.50;;;;;;;;;;5004804;28;20034;-85
2021/10/11 12:14:29;;;;;;;0.10;0.10;;;;;;;;;;5002708;28;20030;-85
2021/10/11 12:17:02;;;;;;;0.60;0.47;;;;;;;;;;5006311;28;20073;-84
2021/10/11 12:19:29;;;;;;;2.92;1.13;;;;;;;;;;5004248;28;20680;-85
2021/10/11 12:21:56;;;;;;;0.57;0.57;;;;;;;;;;5004297;28;20080;-84
2021/10/11 12:24:23;;;;;;;0.10;0.10;;;;;;;;;;5004448;28;20077;-84
2021/10/11 12:26:54;;;;;;;0.52;0.22;;;;;;;;;;5004190;28;20104;-84
2021/10/11 12:29:21;;;;;;;0.10;0.10;;;;;;;;;;5005333;28;20091;-85
2021/10/11 12:31:47;;;;;;;;;;;;;;;;;;5006496;28;20447;-84
2021/10/11 12:34:13;;;;;;;0.32;0.30;;;;;;;;;;5003986;28;20012;-84
2021/10/11 12:36:47;;;;;;;0.30;0.30;;;;;;;;;;5004345;28;20038;-84
2021/10/11 12:39:13;;;;;;;0.60;0.60;;;;;;;;;;5004152;28;20065;-84
2021/10/11 12:41:41;;;;;;;0.30;0.30;;;;;;;;;;5003448;28;20026;-85
2021/10/11 12:44:08;;;;;;;0.10;0.10;;;;;;;;;;5006235;28;20045;-85
2021/10/11 12:46:41;;;;;;;0.13;0.13;;;;;;;;;;5004701;28;20037;-84
2021/10/11 12:49:07;;;;;;;3.60;0.73;;;;;;;;;;5004173;28;20030;-84
2021/10/11 12:51:34;;;;;;;0.30;0.30;;;;;;;;;;5001877;28;20077;-85
2021/10/11 12:54:01;;;;;;;0.35;0.35;;;;;;;;;;5004017;28;20624;-84
2021/10/11 12:56:28;;;;;;;0.13;0.13;;;;;;;;;;5003307;28;20030;-83
2021/10/11 12:59:01;;;;;;;0.20;0.20;;;;;;;;;;5004023;28;20026;-84
2021/10/11 13:01:27;;;;;;;0.35;0.35;;;;;;;;;;5003857;28;20113;-84
2021/10/11 13:03:54;;;;;;;1.35;0.85;;;;;;;;;;5003797;28;20034;-84
2021/10/11 13:06:24;;;;;;;0.03;0.03;;;;;;;;;;5003672;28;20549;-84
2021/10/11 13:08:50;;;;;;;7.10;0.82;;;;;;;;;;5003630;28;20534;-84
2021/10/11 13:11:17;;;;;;;2.25;0.55;;;;;;;;;;5004939;28;20495;-85
2021/10/11 13:13:43;;;;;;;0.15;0.15;;;;;;;;;;5004119;28;20440;-85
2021/10/11 13:16:09;;;;;;;1.08;0.82;;;;;;;;;;5003506;28;20503;-85
2021/10/11 13:18:35;;;;;;;0.25;0.25;;;;;;;;;;5003419;28;20582;-84
2021/10/11 13:21:01;;;;;;;0.20;0.20;;;;;;;;;;5003542;28;20545;-85
2021/10/11 13:23:28;;;;;;;0.20;0.20;;;;;;;;;;5003966;28;20036;-85
2021/10/11 13:25:54;;;;;;;0.52;0.52;;;;;;;;;;5003324;28;20152;-84
2021/10/11 13:28:20;;;;;;;0.17;0.17;;;;;;;;;;5003232;28;20030;-85
2021/10/11 13:34:31;;;;;;;0.52;0.52;;;;;;;;;;5003327;28;20092;-85
2021/10/11 14:28:02;;;;;;;0.60;0.60;;;;;;;;;;5002556;28;20288;-84
2021/10/11 16:01:00;;;;;;;0.30;0.30;;;;;;;;;;4992714;28;20052;-85
2021/10/11 16:03:59;;;;;;;0.20;0.20;;;;;;;;;;4989625;28;20034;-87
2021/10/11 16:06:19;;;;;;;0.32;0.32;;;;;;;;;;4990373;28;20038;-85
2021/10/11 16:08:45;;;;;;;2.85;1.50;;;;;;;;;;5001302;28;20038;-85
2021/10/11 16:11:12;;;;;;;0.20;0.20;;;;;;;;;;4990271;28;20036;-85
2021/10/11 16:13:38;;;;;;;9.35;0.30;;;;;;;;;;4995804;28;20026;-85
2021/10/11 16:16:05;;;;;;;0.10;0.10;;;;;;;;;;4991945;28;20034;-86
2021/10/11 16:18:31;;;;;;;0.22;0.22;;;;;;;;;;4989512;28;20034;-85
2021/10/11 16:20:58;;;;;;;14.53;1.20;;;;;;;;;;4988229;28;20030;-86
2021/10/11 16:23:24;;;;;;;0.35;0.35;;;;;;;;;;4987176;28;20277;-84
2021/10/11 16:25:50;;;;;;;0.20;0.20;;;;;;;;;;4988215;28;20038;-85
2021/10/11 16:28:16;;;;;;;0.00;0.00;;;;;;;;;;4995426;28;20816;-85
2021/10/11 16:30:42;;;;;;;1.73;0.67;;;;;;;;;;5000647;28;20022;-86
2021/10/11 16:33:08;;;;;;;0.43;0.43;;;;;;;;;;4994851;28;20346;-86
2021/10/11 16:35:34;;;;;;;0.00;0.00;;;;;;;;;;4991895;28;20292;-86
2021/10/11 16:38:00;;;;;;;0.10;0.10;;;;;;;;;;4993937;28;20046;-87
2021/10/11 16:40:26;;;;;;;0.10;0.10;;;;;;;;;;4993836;28;20065;-87
2021/10/11 16:42:52;;;;;;;0.77;0.77;;;;;;;;;;4997076;28;20312;-86
2021/10/11 16:45:18;;;;;;;0.10;0.10;;;;;;;;;;5004088;28;20715;-88
2021/10/11 16:47:47;;;;;;;0.10;0.10;;;;;;;;;;4998605;28;20269;-86
2021/10/11 16:50:15;;;;;;;0.10;0.10;;;;;;;;;;4999922;28;20418;-87
2021/10/11 16:52:41;;;;;;;0.43;0.13;;;;;;;;;;5002794;28;20069;-86
2021/10/11 16:55:07;;;;;;;0.10;0.10;;;;;;;;;;4994417;28;20034;-86
2021/10/11 16:57:33;;;;;;;0.10;0.10;;;;;;;;;;4990029;28;20042;-86
2021/10/11 16:59:59;;;;;;;0.40;0.40;;;;;;;;;;4989620;28;20042;-86
2021/10/11 17:02:25;;;;;;;0.00;0.00;;;;;;;;;;4986900;28;20038;-85
2021/10/11 17:04:51;;;;;;;0.30;0.30;;;;;;;;;;4992570;28;20796;-86
2021/10/11 17:07:17;;;;;;;0.30;0.30;;;;;;;;;;4988805;28;20034;-87
2021/10/11 17:09:43;;;;;;;0.10;0.10;;;;;;;;;;4994271;28;20017;-87